Time;durP1;ratioP1;P1;durP2;ratioP2;P2;SDS_P1;SDS_P2;PMS_P1;PMS_P2;Temp;Humidity;BMP_temperature;BMP_pressure;BME280_temperature;BME280_humidity;BME280_pressure;Samples;Min_cycle;Max_cycle;Signal;HPM_P1;HPM_P2
2021/03/02 00:02:00;;;;;;;37.37;20.10;;;4.80;99.90;;;;;;4949232;29;20198;-78
2021/03/02 00:04:27;;;;;;;39.90;19.57;;;4.70;99.90;;;;;;4948416;29;20218;-81
2021/03/02 00:06:54;;;;;;;38.37;19.40;;;4.70;99.90;;;;;;4949691;29;20197;-79
2021/03/02 00:09:21;;;;;;;40.10;20.83;;;4.70;99.90;;;;;;4955186;28;20213;-80
2021/03/02 00:11:49;;;;;;;37.47;20.17;;;4.70;99.90;;;;;;4967613;28;20204;-79
2021/03/02 00:14:15;;;;;;;45.20;21.30;;;4.60;99.90;;;;;;4957865;28;20237;-80
2021/03/02 00:16:44;;;;;;;43.37;21.80;;;4.60;99.90;;;;;;4948316;29;20232;-81
2021/03/02 00:19:14;;;;;;;44.40;21.00;;;4.60;99.90;;;;;;4952030;28;20588;-81
2021/03/02 00:21:48;;;;;;;35.10;19.83;;;4.60;99.90;;;;;;4967238;28;20205;-80
2021/03/02 00:24:20;;;;;;;43.23;20.47;;;4.60;99.90;;;;;;4952091;28;20201;-80
2021/03/02 00:26:53;;;;;;;38.83;20.07;;;4.50;99.90;;;;;;4946686;29;20556;-79
2021/03/02 00:29:20;;;;;;;39.23;20.87;;;4.50;99.90;;;;;;4958456;28;20196;-80
2021/03/02 00:31:49;;;;;;;43.90;21.77;;;4.50;99.90;;;;;;4959831;28;20208;-80
2021/03/02 00:34:16;;;;;;;38.20;19.70;;;4.50;99.90;;;;;;4947336;29;20209;-80
2021/03/02 00:36:43;;;;;;;43.73;22.17;;;4.50;99.90;;;;;;4947930;28;20237;-80
2021/03/02 00:39:09;;;;;;;36.63;20.67;;;4.40;99.90;;;;;;4947945;29;20205;-81
2021/03/02 00:41:36;;;;;;;41.40;20.93;;;4.50;99.90;;;;;;4954232;28;20272;-80
2021/03/02 00:44:02;;;;;;;42.67;22.07;;;4.50;99.90;;;;;;4965937;28;20196;-80
2021/03/02 00:46:28;;;;;;;41.17;20.67;;;4.50;99.90;;;;;;4952824;28;20213;-80
2021/03/02 00:48:55;;;;;;;45.43;21.73;;;4.50;99.90;;;;;;4946655;29;20201;-81
2021/03/02 00:51:21;;;;;;;40.47;20.73;;;4.40;99.90;;;;;;4947717;28;20578;-82
2021/03/02 00:53:48;;;;;;;39.70;21.37;;;4.40;99.90;;;;;;4945705;28;20221;-81
2021/03/02 00:56:14;;;;;;;39.60;21.50;;;4.40;99.90;;;;;;4947831;29;20244;-82
2021/03/02 00:58:44;;;;;;;39.77;21.00;;;4.40;99.90;;;;;;4947701;29;20210;-79
2021/03/02 01:01:10;;;;;;;48.17;21.27;;;4.40;99.90;;;;;;4963620;28;20283;-78
2021/03/02 01:03:36;;;;;;;39.50;20.67;;;4.40;99.90;;;;;;4965802;28;20204;-80
2021/03/02 01:06:03;;;;;;;38.00;21.40;;;4.40;99.90;;;;;;4967308;28;20200;-80
2021/03/02 01:08:29;;;;;;;41.10;21.37;;;4.30;99.90;;;;;;4957960;28;20299;-80
2021/03/02 01:10:56;;;;;;;46.13;22.20;;;4.20;99.90;;;;;;4948511;29;20208;-80
2021/03/02 01:13:23;;;;;;;40.17;20.77;;;4.30;99.90;;;;;;4947722;28;20237;-79
2021/03/02 01:15:49;;;;;;;41.83;22.77;;;4.20;99.90;;;;;;4960378;28;20597;-80
2021/03/02 01:25:08;;;;;;;38.67;21.40;;;4.20;99.90;;;;;;4974017;28;20479;-80
2021/03/02 01:27:39;;;;;;;42.47;21.60;;;4.10;99.90;;;;;;4963274;28;20216;-79
2021/03/02 01:30:07;;;;;;;43.53;23.03;;;4.10;99.90;;;;;;4966089;28;20200;-79
2021/03/02 01:32:33;;;;;;;39.97;21.87;;;4.10;99.90;;;;;;4966243;28;20200;-80
2021/03/02 01:34:59;;;;;;;43.67;22.53;;;4.00;99.90;;;;;;4966305;28;20215;-82
2021/03/02 01:37:26;;;;;;;45.17;23.73;;;4.00;99.90;;;;;;4946078;29;20274;-81
2021/03/02 01:39:52;;;;;;;44.03;22.60;;;4.00;99.90;;;;;;4946713;29;20210;-80
2021/03/02 01:42:18;;;;;;;50.40;24.13;;;4.00;99.90;;;;;;4947751;28;20220;-80
2021/03/02 01:44:46;;;;;;;45.53;24.37;;;4.00;99.90;;;;;;4946851;29;20205;-81
2021/03/02 01:47:12;;;;;;;56.50;24.27;;;4.00;99.90;;;;;;4952595;28;20204;-80
2021/03/02 01:49:38;;;;;;;43.53;22.90;;;4.00;99.90;;;;;;4966530;28;20231;-81
2021/03/02 01:52:05;;;;;;;42.23;22.87;;;4.00;99.90;;;;;;4964740;28;20219;-81
2021/03/02 01:54:32;;;;;;;45.83;25.07;;;4.00;99.90;;;;;;4964859;28;20203;-80
2021/03/02 01:56:58;;;;;;;44.73;23.83;;;3.90;99.90;;;;;;4966289;28;20260;-79
2021/03/02 01:59:24;;;;;;;51.57;24.80;;;4.00;99.90;;;;;;4966277;28;20215;-82
2021/03/02 02:01:52;;;;;;;50.00;24.00;;;3.90;99.90;;;;;;4966187;28;20212;-81
2021/03/02 02:04:21;;;;;;;49.93;24.27;;;3.90;99.90;;;;;;4951553;28;20212;-81
2021/03/02 02:06:53;;;;;;;47.90;24.47;;;3.90;99.90;;;;;;4950801;28;20216;-79
2021/03/02 02:09:28;;;;;;;45.00;24.23;;;3.90;99.90;;;;;;4951545;29;20204;-80
2021/03/02 02:12:04;;;;;;;47.60;23.77;;;3.80;99.90;;;;;;4951463;29;20216;-81
2021/03/02 02:14:40;;;;;;;49.13;24.30;;;3.80;99.90;;;;;;4952381;28;20225;-81
2021/03/02 02:17:12;;;;;;;48.17;25.00;;;3.70;99.90;;;;;;4951904;28;20633;-79
2021/03/02 02:19:43;;;;;;;56.37;27.70;;;3.70;99.90;;;;;;4949424;29;20273;-80
2021/03/02 02:22:34;;;;;;;57.03;28.30;;;3.70;99.90;;;;;;4951573;28;20197;-80
2021/03/02 02:25:28;;;;;;;50.77;25.43;;;3.70;99.90;;;;;;4951646;29;20821;-80
2021/03/02 02:27:57;;;;;;;54.00;26.83;;;3.70;99.90;;;;;;4951328;28;20197;-79
2021/03/02 02:30:25;;;;;;;54.63;27.30;;;3.60;99.90;;;;;;4969072;28;20223;-79
2021/03/02 02:32:52;;;;;;;57.03;26.27;;;3.70;99.90;;;;;;4969572;28;20239;-83
2021/03/02 02:35:21;;;;;;;54.00;27.73;;;3.70;99.90;;;;;;4951177;29;20260;-80
2021/03/02 02:37:49;;;;;;;49.97;27.73;;;3.70;99.90;;;;;;4950990;29;20256;-80
2021/03/02 02:40:17;;;;;;;53.70;26.57;;;3.70;99.90;;;;;;4951036;29;20201;-79
2021/03/02 02:42:47;;;;;;;61.03;28.10;;;3.60;99.90;;;;;;4951030;28;20217;-80
2021/03/02 02:45:16;;;;;;;54.77;26.27;;;3.70;99.90;;;;;;4951494;29;20209;-80
2021/03/02 02:47:43;;;;;;;54.13;26.77;;;3.60;99.90;;;;;;4949244;29;20730;-80
2021/03/02 02:50:11;;;;;;;55.03;26.43;;;3.70;99.90;;;;;;4948382;28;20269;-79
2021/03/02 02:52:40;;;;;;;55.77;26.07;;;3.70;99.90;;;;;;4948957;29;20232;-80
2021/03/02 02:55:08;;;;;;;50.10;25.40;;;3.70;99.90;;;;;;4960300;28;20216;-80
2021/03/02 02:57:39;;;;;;;58.20;28.40;;;3.60;99.90;;;;;;4969664;28;20236;-81
2021/03/02 03:00:06;;;;;;;55.70;27.07;;;3.60;99.90;;;;;;4969946;28;20756;-80
2021/03/02 03:02:36;;;;;;;56.00;26.97;;;3.60;99.90;;;;;;4951139;28;20209;-80
2021/03/02 03:05:09;;;;;;;57.37;28.00;;;3.70;99.90;;;;;;4951041;29;20606;-79
2021/03/02 03:07:38;;;;;;;57.03;27.23;;;3.60;99.90;;;;;;4951228;28;20633;-80
2021/03/02 03:10:06;;;;;;;50.73;25.63;;;3.70;99.90;;;;;;4970155;28;20200;-80
2021/03/02 03:12:37;;;;;;;55.27;26.33;;;3.70;99.90;;;;;;4969625;28;20260;-79
2021/03/02 03:15:06;;;;;;;50.33;23.97;;;3.70;99.90;;;;;;4964874;28;20221;-79
2021/03/02 03:17:38;;;;;;;52.53;26.57;;;3.70;99.90;;;;;;4949733;29;20531;-81
2021/03/02 03:20:07;;;;;;;54.90;26.73;;;3.70;99.90;;;;;;4951362;28;20209;-81
2021/03/02 03:22:34;;;;;;;61.17;27.20;;;3.70;99.90;;;;;;4949876;29;20300;-81
2021/03/02 03:25:03;;;;;;;59.67;28.87;;;3.70;99.90;;;;;;4950417;29;20205;-80
2021/03/02 03:27:32;;;;;;;62.87;28.20;;;3.70;99.90;;;;;;4963488;28;20205;-81
2021/03/02 03:29:59;;;;;;;61.10;28.03;;;3.70;99.90;;;;;;4968728;28;20205;-79
2021/03/02 03:32:27;;;;;;;65.57;28.43;;;3.70;99.90;;;;;;4969280;28;20208;-80
2021/03/02 03:34:57;;;;;;;52.23;25.37;;;3.70;99.90;;;;;;4959948;28;20209;-81
2021/03/02 03:37:24;;;;;;;54.67;27.40;;;3.80;99.90;;;;;;4950276;29;20276;-80
2021/03/02 03:39:50;;;;;;;54.33;27.53;;;3.80;99.90;;;;;;4949759;29;20261;-81
2021/03/02 03:42:16;;;;;;;54.90;26.30;;;3.90;99.90;;;;;;4951034;28;20214;-81
2021/03/02 03:44:43;;;;;;;54.60;26.00;;;3.80;99.90;;;;;;4949995;29;20507;-80
2021/03/02 03:47:09;;;;;;;51.43;26.20;;;3.80;99.90;;;;;;4950014;29;20240;-81
2021/03/02 03:49:35;;;;;;;57.50;26.93;;;3.80;99.90;;;;;;4949341;28;20239;-78
2021/03/02 03:52:05;;;;;;;51.43;25.90;;;3.70;99.90;;;;;;4949927;29;20202;-81
2021/03/02 03:54:33;;;;;;;48.10;25.30;;;3.70;99.90;;;;;;4949107;29;20779;-81
2021/03/02 03:57:00;;;;;;;55.17;26.43;;;3.70;99.90;;;;;;4948692;29;20233;-80
2021/03/02 03:59:28;;;;;;;54.93;26.13;;;3.70;99.90;;;;;;4948804;28;20221;-79
2021/03/02 04:01:55;;;;;;;57.13;27.13;;;3.60;99.90;;;;;;4949386;29;20209;-80
2021/03/02 04:04:25;;;;;;;52.87;26.50;;;3.60;99.90;;;;;;4949225;29;20240;-80
2021/03/02 04:06:53;;;;;;;55.27;24.77;;;3.60;99.90;;;;;;4950065;28;20264;-79
2021/03/02 04:09:22;;;;;;;46.27;24.97;;;3.60;99.90;;;;;;4949287;29;20524;-79
2021/03/02 04:11:48;;;;;;;51.90;27.17;;;3.60;99.90;;;;;;4948553;29;20213;-79
2021/03/02 04:14:15;;;;;;;57.03;27.87;;;3.50;99.90;;;;;;4949170;28;20232;-81
2021/03/02 04:16:42;;;;;;;49.97;26.97;;;3.50;99.90;;;;;;4949287;28;20232;-82
2021/03/02 04:19:10;;;;;;;51.43;25.77;;;3.40;99.90;;;;;;4947806;28;20236;-82
2021/03/02 04:21:36;;;;;;;49.53;24.47;;;3.40;99.90;;;;;;4947780;29;20201;-81
2021/03/02 04:24:03;;;;;;;51.00;25.60;;;3.40;99.90;;;;;;4948532;29;20213;-81
2021/03/02 04:26:30;;;;;;;56.33;26.40;;;3.40;99.90;;;;;;4947419;29;20996;-81
2021/03/02 04:28:56;;;;;;;58.93;27.87;;;3.40;99.90;;;;;;4955967;28;20208;-81
2021/03/02 04:31:23;;;;;;;51.40;26.07;;;3.30;99.90;;;;;;4948296;29;20217;-80
2021/03/02 04:33:49;;;;;;;54.30;26.30;;;3.30;99.90;;;;;;4948092;29;20213;-81
2021/03/02 04:36:16;;;;;;;49.70;25.07;;;3.30;99.90;;;;;;4948740;29;20205;-81
2021/03/02 04:38:42;;;;;;;49.60;26.03;;;3.30;99.90;;;;;;4955165;28;20272;-80
2021/03/02 04:41:08;;;;;;;51.87;25.63;;;3.30;99.90;;;;;;4967131;28;20512;-81
2021/03/02 04:43:35;;;;;;;58.00;28.27;;;3.30;99.90;;;;;;4988418;23;20302;-81
2021/03/02 04:46:02;;;;;;;50.03;26.33;;;3.30;99.90;;;;;;4986717;28;20290;-80
2021/03/02 04:48:28;;;;;;;51.40;27.27;;;3.20;99.90;;;;;;4986605;28;20200;-80
2021/03/02 04:50:54;;;;;;;50.13;26.47;;;3.30;99.90;;;;;;4985564;28;20207;-81
2021/03/02 04:53:21;;;;;;;55.63;27.60;;;3.30;99.90;;;;;;4984362;28;20203;-81
2021/03/02 04:55:47;;;;;;;56.63;27.57;;;3.30;99.90;;;;;;4966169;28;20212;-81
2021/03/02 04:58:13;;;;;;;53.53;26.50;;;3.30;99.90;;;;;;4966753;28;20224;-81
2021/03/02 05:00:41;;;;;;;55.73;26.77;;;3.30;99.90;;;;;;4967041;28;20881;-81
2021/03/02 05:03:07;;;;;;;56.63;27.80;;;3.30;99.90;;;;;;4986639;28;20266;-80
2021/03/02 05:05:34;;;;;;;57.93;27.97;;;3.30;99.90;;;;;;4985193;28;20196;-81
2021/03/02 05:08:00;;;;;;;52.20;26.73;;;3.30;99.90;;;;;;4986160;28;20286;-81
2021/03/02 05:10:26;;;;;;;60.63;28.40;;;3.30;99.90;;;;;;4983191;28;20279;-81
2021/03/02 05:12:53;;;;;;;55.10;27.40;;;3.30;99.90;;;;;;4985022;28;20211;-80
2021/03/02 05:15:19;;;;;;;58.17;28.50;;;3.20;99.90;;;;;;4985697;28;20212;-81
2021/03/02 05:17:46;;;;;;;58.33;28.73;;;3.20;99.90;;;;;;4985031;28;20239;-80
2021/03/02 05:20:13;;;;;;;61.13;28.33;;;3.30;99.90;;;;;;4985957;28;20340;-80
2021/03/02 05:22:40;;;;;;;65.93;28.47;;;3.30;99.90;;;;;;4985318;28;20215;-80
2021/03/02 05:25:07;;;;;;;68.13;29.73;;;3.20;99.90;;;;;;4984892;28;20540;-80
2021/03/02 05:27:33;;;;;;;64.40;30.20;;;3.20;99.90;;;;;;4985467;28;20203;-80
2021/03/02 05:30:00;;;;;;;65.30;31.07;;;3.20;99.90;;;;;;4985324;28;20215;-80
2021/03/02 05:32:26;;;;;;;59.83;29.77;;;3.10;99.90;;;;;;4984134;28;20215;-81
2021/03/02 05:34:54;;;;;;;64.53;29.73;;;3.10;99.90;;;;;;4984860;28;20204;-79
2021/03/02 05:37:21;;;;;;;63.23;29.83;;;3.10;99.90;;;;;;4985020;28;20339;-80
2021/03/02 05:39:47;;;;;;;59.90;29.43;;;3.10;99.90;;;;;;4967633;28;20214;-80
2021/03/02 05:42:13;;;;;;;71.07;30.43;;;3.10;99.90;;;;;;4984579;28;20391;-79
2021/03/02 05:44:40;;;;;;;68.57;31.60;;;3.10;99.90;;;;;;4984264;28;20219;-79
2021/03/02 05:47:08;;;;;;;64.07;31.23;;;3.10;99.90;;;;;;4984141;28;20208;-80
2021/03/02 05:49:35;;;;;;;61.87;29.17;;;3.20;99.90;;;;;;4984965;28;20218;-79
2021/03/02 05:52:04;;;;;;;70.10;30.37;;;3.10;99.90;;;;;;4984419;28;20267;-80
2021/03/02 05:54:30;;;;;;;64.37;30.77;;;3.10;99.90;;;;;;4984609;28;20231;-80
2021/03/02 05:56:56;;;;;;;60.30;28.53;;;3.20;99.90;;;;;;4983502;28;20231;-80
2021/03/02 05:59:23;;;;;;;65.97;30.03;;;3.10;99.90;;;;;;4984806;28;20215;-80
2021/03/02 06:01:51;;;;;;;69.70;30.43;;;3.10;99.90;;;;;;4984378;28;20215;-79
2021/03/02 06:04:18;;;;;;;59.67;29.40;;;3.10;99.90;;;;;;4984644;28;20211;-79
2021/03/02 06:06:44;;;;;;;62.23;29.80;;;3.10;99.90;;;;;;4984104;28;20592;-79
2021/03/02 06:09:12;;;;;;;66.90;31.57;;;3.10;99.90;;;;;;4984797;28;20226;-80
2021/03/02 06:11:38;;;;;;;62.43;29.87;;;3.00;99.90;;;;;;4983245;28;20232;-81
2021/03/02 06:14:22;;;;;;;66.10;31.70;;;3.00;99.90;;;;;;4985112;28;20554;-81
2021/03/02 06:16:49;;;;;;;59.53;28.93;;;3.00;99.90;;;;;;4984842;28;20232;-81
2021/03/02 06:19:17;;;;;;;71.47;31.10;;;3.00;99.90;;;;;;4985300;28;20192;-80
2021/03/02 06:21:43;;;;;;;66.00;29.87;;;3.00;99.90;;;;;;4984299;28;20914;-80
2021/03/02 06:24:10;;;;;;;63.00;30.00;;;2.90;99.90;;;;;;4985330;28;20255;-79
2021/03/02 06:26:38;;;;;;;59.70;28.17;;;2.90;99.90;;;;;;4984534;28;20200;-80
2021/03/02 06:29:15;;;;;;;67.23;30.67;;;2.90;99.90;;;;;;4984808;28;20290;-81
2021/03/02 06:31:42;;;;;;;60.87;29.73;;;3.00;99.90;;;;;;4983993;28;20215;-79
2021/03/02 06:34:11;;;;;;;62.17;29.77;;;2.90;99.90;;;;;;4984801;28;20207;-79
2021/03/02 06:36:39;;;;;;;59.23;29.37;;;2.90;99.90;;;;;;4983910;28;20223;-79
2021/03/02 06:39:23;;;;;;;63.37;30.07;;;2.90;99.90;;;;;;4984656;28;20259;-79
2021/03/02 06:41:51;;;;;;;60.30;29.73;;;2.90;99.90;;;;;;4982821;28;20709;-80
2021/03/02 06:44:17;;;;;;;60.70;27.53;;;3.00;99.90;;;;;;4984289;28;20467;-80
2021/03/02 06:46:44;;;;;;;65.53;30.40;;;3.00;99.90;;;;;;4983455;28;20283;-80
2021/03/02 06:49:10;;;;;;;62.73;30.00;;;3.00;99.90;;;;;;4983981;28;20216;-79
2021/03/02 06:51:39;;;;;;;66.27;31.97;;;3.00;99.90;;;;;;4986826;28;20207;-79
2021/03/02 06:54:07;;;;;;;62.57;30.70;;;3.00;99.90;;;;;;4987539;28;20196;-80
2021/03/02 06:56:34;;;;;;;65.13;28.90;;;2.90;99.90;;;;;;4987014;28;20231;-80
2021/03/02 06:59:15;;;;;;;63.37;29.60;;;3.00;99.90;;;;;;4986703;28;20230;-80
2021/03/02 07:01:44;;;;;;;66.73;30.87;;;3.00;99.90;;;;;;4986100;28;20203;-79
2021/03/02 07:04:12;;;;;;;65.73;31.03;;;3.00;99.90;;;;;;4985581;28;20630;-80
2021/03/02 07:06:39;;;;;;;57.63;29.00;;;3.00;99.90;;;;;;4987350;28;20492;-80
2021/03/02 07:09:06;;;;;;;68.87;31.30;;;3.00;99.90;;;;;;4987027;28;20203;-80
2021/03/02 07:11:35;;;;;;;63.77;29.87;;;2.90;99.90;;;;;;4986590;28;20208;-80
2021/03/02 07:14:03;;;;;;;65.30;28.93;;;3.00;99.90;;;;;;4985959;28;20682;-80
2021/03/02 07:16:30;;;;;;;64.40;30.13;;;3.00;99.90;;;;;;4986842;28;20207;-80
2021/03/02 07:19:00;;;;;;;59.00;27.63;;;3.00;99.90;;;;;;4986165;28;20701;-80
2021/03/02 07:21:28;;;;;;;66.00;32.43;;;3.00;99.90;;;;;;4986652;28;20885;-80
2021/03/02 07:23:55;;;;;;;66.53;30.70;;;3.00;99.90;;;;;;4986867;28;20200;-79
2021/03/02 07:26:22;;;;;;;70.13;31.43;;;3.10;99.90;;;;;;4988151;28;20291;-79
2021/03/02 07:28:49;;;;;;;65.60;30.33;;;3.10;99.90;;;;;;4985550;28;20590;-80
2021/03/02 07:31:16;;;;;;;62.47;30.00;;;3.10;99.90;;;;;;4987704;28;20604;-79
2021/03/02 07:33:46;;;;;;;73.13;34.27;;;3.10;99.90;;;;;;4987437;28;20211;-80
2021/03/02 07:36:13;;;;;;;66.63;31.40;;;3.20;99.90;;;;;;4988065;28;20216;-77
2021/03/02 07:38:40;;;;;;;71.43;33.60;;;3.20;99.90;;;;;;4986482;28;20235;-80
2021/03/02 07:41:06;;;;;;;62.63;30.90;;;3.20;99.90;;;;;;4986585;28;20200;-81
2021/03/02 07:43:34;;;;;;;61.40;31.13;;;3.30;99.90;;;;;;4986930;28;20267;-77
2021/03/02 07:46:21;;;;;;;67.13;32.53;;;3.30;99.90;;;;;;4988138;28;20200;-81
2021/03/02 07:48:49;;;;;;;67.60;33.27;;;3.30;99.90;;;;;;4986530;28;20207;-80
2021/03/02 07:51:18;;;;;;;68.27;31.63;;;3.40;99.90;;;;;;4988401;28;20872;-81
2021/03/02 07:53:45;;;;;;;64.07;31.00;;;3.40;99.90;;;;;;4988249;28;20212;-80
2021/03/02 07:56:23;;;;;;;73.63;32.27;;;3.40;99.90;;;;;;4987564;28;20208;-81
2021/03/02 07:59:18;;;;;;;74.17;32.63;;;3.50;99.90;;;;;;4988385;28;20188;-80
2021/03/02 08:02:05;;;;;;;66.73;32.27;;;3.50;99.90;;;;;;4984885;28;20207;-81
2021/03/02 08:04:32;;;;;;;63.50;30.93;;;3.50;99.90;;;;;;4987872;28;20203;-80
2021/03/02 08:07:21;;;;;;;72.87;34.33;;;3.60;99.90;;;;;;4988295;28;20212;-81
2021/03/02 08:09:47;;;;;;;71.07;32.13;;;3.60;99.90;;;;;;4987474;28;20200;-80
2021/03/02 08:12:29;;;;;;;68.40;34.03;;;3.70;99.90;;;;;;4988884;28;20218;-82
2021/03/02 08:14:56;;;;;;;76.87;33.20;;;3.70;99.90;;;;;;4988044;28;20223;-79
2021/03/02 08:17:23;;;;;;;64.17;29.97;;;3.80;99.90;;;;;;4985239;28;20231;-79
2021/03/02 08:19:59;;;;;;;72.37;34.53;;;3.80;99.90;;;;;;4986820;28;20286;-82
2021/03/02 08:23:13;;;;;;;65.93;33.00;;;3.80;99.90;;;;;;4931698;28;20474;-78
2021/03/02 08:25:39;;;;;;;65.33;31.30;;;3.90;99.90;;;;;;4988448;28;20208;-81
2021/03/02 08:28:09;;;;;;;78.40;34.73;;;4.00;99.90;;;;;;4990362;28;20196;-82
2021/03/02 08:30:37;;;;;;;68.87;34.03;;;4.00;99.90;;;;;;4987944;28;20555;-81
2021/03/02 08:33:08;;;;;;;72.60;34.33;;;4.10;99.90;;;;;;4986380;28;20212;-79
2021/03/02 08:35:37;;;;;;;69.87;33.50;;;4.10;99.90;;;;;;4986985;28;20203;-82
2021/03/02 08:38:05;;;;;;;69.60;32.83;;;4.10;99.90;;;;;;4988331;28;20220;-82
2021/03/02 08:40:44;;;;;;;74.83;34.13;;;4.20;99.90;;;;;;4983836;28;20310;-79
2021/03/02 08:43:13;;;;;;;70.47;33.77;;;4.30;99.90;;;;;;4985897;28;20242;-80
2021/03/02 08:45:40;;;;;;;68.37;33.43;;;4.40;99.90;;;;;;4985842;28;20204;-80
2021/03/02 08:48:31;;;;;;;67.83;34.10;;;4.50;99.90;;;;;;4984590;28;20263;-79
2021/03/02 08:51:02;;;;;;;70.40;32.87;;;4.60;99.90;;;;;;4969657;28;20207;-79
2021/03/02 08:53:35;;;;;;;72.40;34.03;;;4.70;99.90;;;;;;4988594;28;20564;-82
2021/03/02 08:56:03;;;;;;;73.37;34.67;;;4.70;99.90;;;;;;4989100;28;20299;-82
2021/03/02 08:58:31;;;;;;;65.70;32.63;;;4.90;99.90;;;;;;4986648;28;20541;-81
2021/03/02 09:00:59;;;;;;;70.37;32.93;;;5.00;99.90;;;;;;4985222;28;20212;-79
2021/03/02 09:03:25;;;;;;;69.30;32.67;;;5.00;99.90;;;;;;4986324;28;20286;-81
2021/03/02 09:06:11;;;;;;;63.60;33.07;;;5.10;99.90;;;;;;4985977;28;20497;-80
2021/03/02 09:08:52;;;;;;;65.43;31.97;;;5.10;99.90;;;;;;4985267;28;20196;-80
2021/03/02 09:11:21;;;;;;;64.70;32.17;;;5.30;99.90;;;;;;4986835;28;20203;-82
2021/03/02 09:13:47;;;;;;;59.97;32.03;;;5.30;99.90;;;;;;4984329;28;20319;-80
2021/03/02 09:16:31;;;;;;;66.43;33.80;;;5.40;99.90;;;;;;4985937;28;20208;-80
2021/03/02 09:19:10;;;;;;;57.57;30.67;;;5.50;99.90;;;;;;4985171;28;20301;-79
2021/03/02 09:21:39;;;;;;;54.47;29.33;;;5.60;99.90;;;;;;4985592;28;20200;-80
2021/03/02 09:24:06;;;;;;;58.53;31.20;;;5.60;99.90;;;;;;4985296;28;20212;-80
2021/03/02 09:26:33;;;;;;;56.50;31.27;;;5.70;99.90;;;;;;4984974;28;20263;-79
2021/03/02 09:29:03;;;;;;;59.27;33.77;;;5.90;99.90;;;;;;4984563;28;20219;-81
2021/03/02 09:31:31;;;;;;;56.23;31.53;;;6.00;99.90;;;;;;4984288;28;20263;-80
2021/03/02 09:33:58;;;;;;;52.53;30.23;;;6.10;99.90;;;;;;4985073;28;20234;-80
2021/03/02 09:36:25;;;;;;;54.47;29.87;;;6.20;99.90;;;;;;4984230;28;20282;-80
2021/03/02 09:38:54;;;;;;;49.93;29.03;;;6.20;99.90;;;;;;4984878;28;20282;-81
2021/03/02 09:41:37;;;;;;;47.27;27.60;;;6.40;99.90;;;;;;4983163;28;20287;-82
2021/03/02 09:44:30;;;;;;;47.70;26.57;;;6.60;99.90;;;;;;4989125;28;20250;-88
2021/03/02 09:46:59;;;;;;;46.70;27.43;;;6.70;99.90;;;;;;4990200;28;20483;-83
2021/03/02 09:49:40;;;;;;;43.30;25.17;;;6.80;99.90;;;;;;4989630;28;20200;-85
2021/03/02 09:52:07;;;;;;;43.13;24.40;;;6.90;99.90;;;;;;4990598;28;20283;-85
2021/03/02 09:54:35;;;;;;;48.67;26.17;;;7.00;99.90;;;;;;4990821;28;20199;-83
2021/03/02 09:57:02;;;;;;;42.87;25.03;;;7.10;99.90;;;;;;4973676;28;20739;-84
2021/03/02 09:59:31;;;;;;;41.23;25.47;;;7.20;99.90;;;;;;4986186;28;20218;-82
2021/03/02 10:02:00;;;;;;;41.93;23.97;;;7.30;99.90;;;;;;4987580;28;20210;-84
2021/03/02 10:04:27;;;;;;;40.93;25.17;;;7.40;99.90;;;;;;4986278;28;20270;-79
2021/03/02 10:07:12;;;;;;;37.83;24.03;;;7.50;99.90;;;;;;4969426;28;20212;-86
2021/03/02 10:09:47;;;;;;;39.77;25.57;;;7.60;99.90;;;;;;4969172;28;20204;-84
2021/03/02 10:12:14;;;;;;;40.77;24.53;;;7.70;99.90;;;;;;4970430;28;20188;-81
2021/03/02 10:14:43;;;;;;;38.07;25.60;;;7.80;99.90;;;;;;4986665;28;20644;-82
2021/03/02 10:17:09;;;;;;;40.07;24.33;;;8.00;99.90;;;;;;4984389;28;20231;-84
2021/03/02 10:19:37;;;;;;;37.80;24.63;;;8.10;99.90;;;;;;4968556;28;20581;-84
2021/03/02 10:22:11;;;;;;;33.70;21.73;;;8.20;99.90;;;;;;4980030;28;20867;-87
2021/03/02 10:24:39;;;;;;;38.27;23.93;;;8.30;99.90;;;;;;4990236;28;20196;-86
2021/03/02 10:27:11;;;;;;;36.70;22.67;;;8.50;99.90;;;;;;4993813;28;20195;-88
2021/03/02 10:29:37;;;;;;;39.83;23.83;;;8.60;99.90;;;;;;4994133;28;20286;-85
2021/03/02 10:32:04;;;;;;;41.07;24.47;;;8.70;99.90;;;;;;4994054;28;20817;-87
2021/03/02 10:34:34;;;;;;;38.00;23.43;;;8.80;99.90;;;;;;4993909;28;20218;-85
2021/03/02 10:37:01;;;;;;;33.30;21.70;;;8.90;99.90;;;;;;4993933;28;20228;-85
2021/03/02 10:39:28;;;;;;;33.47;21.47;;;9.10;99.90;;;;;;4993466;28;20231;-85
2021/03/02 10:41:55;;;;;;;37.43;23.03;;;9.30;99.90;;;;;;4994149;28;20200;-86
2021/03/02 10:44:21;;;;;;;34.50;22.83;;;9.40;99.90;;;;;;4992708;28;20311;-85
2021/03/02 10:46:48;;;;;;;32.97;22.70;;;9.50;99.90;;;;;;4987368;28;20227;-84
2021/03/02 10:49:14;;;;;;;32.87;21.73;;;9.60;99.90;;;;;;4988875;28;20212;-84
2021/03/02 10:51:41;;;;;;;36.13;22.00;;;9.70;99.90;;;;;;4987545;28;20219;-84
2021/03/02 10:54:08;;;;;;;32.40;21.93;;;9.80;99.90;;;;;;4988005;28;20270;-81
2021/03/02 10:56:35;;;;;;;34.80;22.20;;;9.80;99.90;;;;;;4988973;28;20208;-82
2021/03/02 10:59:03;;;;;;;31.30;21.03;;;9.70;99.90;;;;;;4987967;28;20235;-82
2021/03/02 11:01:44;;;;;;;31.30;20.63;;;9.80;99.90;;;;;;4990928;28;20619;-82
2021/03/02 11:04:13;;;;;;;34.57;21.53;;;9.90;99.90;;;;;;5014792;23;20577;-81
2021/03/02 11:06:39;;;;;;;29.97;19.50;;;10.00;99.90;;;;;;4990305;28;20258;-84
2021/03/02 11:09:05;;;;;;;30.00;20.73;;;10.00;99.90;;;;;;4992349;28;20216;-87
2021/03/02 11:11:32;;;;;;;31.93;20.90;;;10.20;99.90;;;;;;4989356;28;20651;-85
2021/03/02 11:13:59;;;;;;;32.00;21.67;;;10.20;99.90;;;;;;4987515;28;20228;-88
2021/03/02 11:16:26;;;;;;;33.53;21.27;;;10.30;99.90;;;;;;4988036;28;20871;-88
2021/03/02 11:18:52;;;;;;;31.50;20.30;;;10.30;99.90;;;;;;4987910;28;20231;-87
2021/03/02 11:21:19;;;;;;;30.70;20.57;;;10.30;99.90;;;;;;4987930;28;20246;-87
2021/03/02 11:23:45;;;;;;;28.97;19.93;;;10.30;99.90;;;;;;4990000;28;20208;-85
2021/03/02 11:26:11;;;;;;;30.33;20.10;;;10.40;99.90;;;;;;4992201;28;20320;-82
2021/03/02 11:28:38;;;;;;;28.97;19.90;;;10.50;99.90;;;;;;4983750;28;20532;-82
2021/03/02 11:31:05;;;;;;;31.17;20.60;;;10.60;99.90;;;;;;4970833;28;20212;-82
2021/03/02 11:33:32;;;;;;;29.30;20.50;;;10.70;99.90;;;;;;4970164;28;20204;-83
2021/03/02 11:35:58;;;;;;;29.87;20.40;;;10.80;99.90;;;;;;4990193;28;20266;-83
2021/03/02 11:38:25;;;;;;;26.13;18.73;;;10.80;99.90;;;;;;4987759;28;20283;-82
2021/03/02 11:40:52;;;;;;;27.13;19.23;;;10.80;99.90;;;;;;4988640;28;20266;-82
2021/03/02 11:43:19;;;;;;;28.93;20.47;;;10.90;99.90;;;;;;4990204;28;20968;-81
2021/03/02 11:45:45;;;;;;;33.20;21.97;;;11.00;99.90;;;;;;4990504;28;20218;-81
2021/03/02 11:48:12;;;;;;;25.20;18.20;;;11.10;99.90;;;;;;4990419;28;20196;-85
2021/03/02 11:50:39;;;;;;;29.43;20.37;;;11.20;99.90;;;;;;4991034;28;20215;-85
2021/03/02 11:53:05;;;;;;;28.70;19.53;;;11.30;99.90;;;;;;4988745;28;20226;-79
2021/03/02 11:55:32;;;;;;;28.10;19.90;;;11.40;99.90;;;;;;4987189;28;20263;-81
2021/03/02 11:57:58;;;;;;;27.43;18.63;;;11.50;99.90;;;;;;4990187;28;20228;-82
2021/03/02 12:00:25;;;;;;;29.83;19.07;;;11.60;99.90;;;;;;4988938;28;20208;-82
2021/03/02 12:02:51;;;;;;;27.10;19.33;;;11.60;99.90;;;;;;4986528;28;20196;-82
2021/03/02 12:05:20;;;;;;;30.73;19.37;;;11.70;99.90;;;;;;4986083;28;20306;-81
2021/03/02 12:07:48;;;;;;;27.30;19.43;;;11.70;99.90;;;;;;4988147;28;20207;-82
2021/03/02 12:10:16;;;;;;;24.33;17.50;;;11.70;99.90;;;;;;4968977;28;20228;-81
2021/03/02 12:12:43;;;;;;;28.37;18.87;;;11.80;99.90;;;;;;4968290;28;20212;-81
2021/03/02 12:15:11;;;;;;;24.97;18.40;;;12.00;99.90;;;;;;4974392;28;20246;-82
2021/03/02 12:17:38;;;;;;;27.20;19.57;;;12.10;99.90;;;;;;4987400;28;20231;-83
2021/03/02 12:20:07;;;;;;;26.27;18.83;;;12.10;99.90;;;;;;4988593;28;20716;-82
2021/03/02 12:22:33;;;;;;;26.37;19.57;;;12.10;99.90;;;;;;4968538;28;20701;-81
2021/03/02 12:25:00;;;;;;;24.60;17.97;;;12.00;99.90;;;;;;4968794;28;20204;-80
2021/03/02 12:27:28;;;;;;;30.60;19.43;;;12.00;99.90;;;;;;4968546;28;20208;-81
2021/03/02 12:29:55;;;;;;;26.70;19.40;;;12.00;99.90;;;;;;4985136;28;20216;-81
2021/03/02 12:32:21;;;;;;;27.77;18.93;;;12.00;99.90;;;;;;4989234;28;20204;-83
2021/03/02 12:34:47;;;;;;;26.47;19.00;;;12.00;99.90;;;;;;4978466;28;20609;-82
2021/03/02 12:37:13;;;;;;;25.20;17.93;;;11.90;99.90;;;;;;4966572;28;21042;-83
2021/03/02 12:39:40;;;;;;;29.67;19.30;;;11.80;99.90;;;;;;4968870;28;20209;-80
2021/03/02 12:42:08;;;;;;;27.97;19.57;;;11.80;99.90;;;;;;4968494;28;20208;-82
2021/03/02 12:44:34;;;;;;;26.50;18.83;;;11.90;99.90;;;;;;4968022;28;20323;-82
2021/03/02 12:47:00;;;;;;;25.67;18.20;;;11.90;99.90;;;;;;4968755;28;20855;-81
2021/03/02 12:49:27;;;;;;;27.57;19.37;;;11.90;99.90;;;;;;4968843;28;20672;-83
2021/03/02 12:51:53;;;;;;;26.27;19.63;;;12.10;99.90;;;;;;4986078;28;20254;-83